Aviation Digital Data Service (ADDS)

Output produced by TAFs form (0323 UTC 26 March 2017)
found at http://www.aviationweather.gov/adds/tafs/
 
KPSF 260249Z 2603/2624 VRB03KT P6SM SCT008 
     TEMPO 2603/2605 BKN008 
     FM260500 VRB03KT P6SM BKN035 
     FM261400 09005KT P6SM OVC025 
     PROB30 2617/2618 3SM -RAPL BR OVC015 
     FM262000 12007KT 4SM -RA BR OVC015